createdAt,value
2023-04-03T00:02:53.171Z,7.30
2023-04-03T00:05:57.131Z,7.41
2023-04-03T00:09:00.529Z,7.55
2023-04-03T00:12:03.480Z,7.68
2023-04-03T00:15:07.378Z,7.55
2023-04-03T00:18:11.156Z,7.50
2023-04-03T00:21:14.702Z,7.32
2023-04-03T00:24:17.229Z,7.63
2023-04-03T00:27:20.637Z,7.27
2023-04-03T00:30:23.723Z,7.48
2023-04-03T00:33:27.118Z,7.54
2023-04-03T00:36:30.245Z,7.71
2023-04-03T00:39:33.046Z,7.44
2023-04-03T00:42:37.312Z,7.21
2023-04-03T00:45:42.490Z,7.25
2023-04-03T00:48:47.621Z,7.45
2023-04-03T00:51:52.041Z,7.41
2023-04-03T00:54:59.134Z,7.53
2023-04-03T00:58:02.932Z,7.52
2023-04-03T01:01:11.299Z,7.44
2023-04-03T01:04:36.797Z,7.45
2023-04-03T01:07:40.506Z,7.52
2023-04-03T01:10:44.695Z,7.55
2023-04-03T01:13:48.122Z,7.55
2023-04-03T01:16:56.855Z,7.47
2023-04-03T01:20:36.027Z,7.44
2023-04-03T01:24:06.992Z,7.60
2023-04-03T01:27:13.272Z,7.65
2023-04-03T01:30:18.590Z,7.25
2023-04-03T01:33:22.273Z,7.31
2023-04-03T01:36:29.670Z,7.28
2023-04-03T01:39:33.071Z,7.12
2023-04-03T01:42:37.821Z,7.26
2023-04-03T01:45:41.254Z,7.18
2023-04-03T01:48:45.067Z,7.04
2023-04-03T01:51:48.630Z,7.11
2023-04-03T01:54:51.674Z,6.86
2023-04-03T01:57:55.113Z,6.77
2023-04-03T02:00:58.355Z,6.84
2023-04-03T02:04:02.268Z,6.65
2023-04-03T02:07:04.962Z,6.95
2023-04-03T02:10:09.016Z,6.47
2023-04-03T02:13:11.971Z,6.85
2023-04-03T02:16:15.802Z,6.79
2023-04-03T02:19:18.568Z,6.82
2023-04-03T02:22:21.343Z,6.57
2023-04-03T02:25:23.985Z,6.44
2023-04-03T02:28:27.205Z,6.68
2023-04-03T02:31:30.731Z,6.66
2023-04-03T02:34:36.198Z,6.53
2023-04-03T02:37:40.664Z,6.53
2023-04-03T02:40:43.725Z,6.51
2023-04-03T02:43:47.156Z,6.43
2023-04-03T02:46:50.028Z,6.57
2023-04-03T02:49:53.850Z,6.61
2023-04-03T02:52:57.139Z,6.34
2023-04-03T02:56:00.693Z,6.07
2023-04-03T02:59:04.043Z,6.43
2023-04-03T03:02:11.905Z,6.26
2023-04-03T03:05:14.767Z,6.30
2023-04-03T03:08:21.098Z,6.26
2023-04-03T03:11:23.756Z,6.34
2023-04-03T03:14:27.239Z,6.30
2023-04-03T03:17:31.178Z,6.01
2023-04-03T03:20:35.748Z,6.29
2023-04-03T03:23:39.292Z,6.23
2023-04-03T03:26:42.436Z,6.05
2023-04-03T03:29:45.863Z,6.05
2023-04-03T03:32:50.926Z,6.16
2023-04-03T03:35:55.796Z,6.27
2023-04-03T03:38:58.395Z,5.98
2023-04-03T03:42:01.079Z,5.85
2023-04-03T03:45:05.735Z,5.78
2023-04-03T03:48:10.602Z,5.73
2023-04-03T03:51:13.348Z,5.87
2023-04-03T03:54:16.723Z,5.47
2023-04-03T03:57:19.858Z,5.61
2023-04-03T04:00:23.482Z,5.74
2023-04-03T04:03:31.547Z,5.56
2023-04-03T04:06:34.317Z,5.43
2023-04-03T04:09:40.767Z,5.29
2023-04-03T04:12:44.620Z,5.50
2023-04-03T04:15:47.668Z,5.19
2023-04-03T04:18:52.803Z,5.19
2023-04-03T04:21:56.286Z,5.39
2023-04-03T04:24:59.539Z,5.26
2023-04-03T04:28:02.500Z,5.38
2023-04-03T04:31:05.517Z,4.99
2023-04-03T04:34:09.449Z,5.22
2023-04-03T04:37:13.796Z,5.39
2023-04-03T04:40:17.336Z,5.30
2023-04-03T04:43:20.989Z,5.25
2023-04-03T04:46:26.766Z,5.13
2023-04-03T04:49:33.473Z,5.20
2023-04-03T04:52:37.021Z,5.35
2023-04-03T04:55:55.361Z,5.51
2023-04-03T04:59:05.883Z,5.49
2023-04-03T05:02:14.963Z,5.58
2023-04-03T05:05:24.921Z,5.52
2023-04-03T05:08:29.031Z,5.73
2023-04-03T05:11:32.776Z,5.51
2023-04-03T05:14:36.537Z,5.73
2023-04-03T05:17:42.878Z,5.58
2023-04-03T05:20:51.412Z,5.67
2023-04-03T05:23:55.886Z,5.36
2023-04-03T05:26:59.097Z,5.60
2023-04-03T05:30:03.043Z,5.39
2023-04-03T05:33:08.014Z,5.36
2023-04-03T05:36:26.698Z,5.42
2023-04-03T05:39:52.521Z,5.23
2023-04-03T05:42:58.248Z,5.12
2023-04-03T05:46:04.241Z,5.54
2023-04-03T05:49:07.912Z,5.53
2023-04-03T05:52:27.861Z,5.43
2023-04-03T05:55:32.975Z,5.53
2023-04-03T05:58:36.369Z,5.56
2023-04-03T06:01:39.649Z,5.37
2023-04-03T06:04:44.296Z,5.56
2023-04-03T06:07:50.779Z,5.75
2023-04-03T06:10:54.006Z,5.84
2023-04-03T06:13:58.302Z,6.01
2023-04-03T06:17:02.844Z,6.09
2023-04-03T06:20:07.473Z,6.06
2023-04-03T06:23:13.288Z,6.09
2023-04-03T06:26:16.780Z,6.11
2023-04-03T06:29:22.399Z,6.24
2023-04-03T06:32:26.327Z,6.36
2023-04-03T06:35:31.487Z,6.50
2023-04-03T06:38:35.527Z,6.76
2023-04-03T06:41:39.054Z,6.94
2023-04-03T06:44:42.738Z,7.01
2023-04-03T06:52:41.250Z,7.39
2023-04-03T06:56:07.037Z,7.54
2023-04-03T06:59:14.466Z,7.67
2023-04-03T07:02:18.889Z,7.91
2023-04-03T07:05:24.719Z,7.95
2023-04-03T07:08:28.452Z,8.17
2023-04-03T07:11:31.602Z,8.51
2023-04-03T07:14:37.309Z,8.42
2023-04-03T07:17:41.402Z,8.50
2023-04-03T07:20:46.071Z,8.89
2023-04-03T07:26:54.809Z,9.05
2023-04-03T07:30:00.272Z,9.22
2023-04-03T07:33:03.589Z,9.22
2023-04-03T07:36:09.737Z,9.47
2023-04-03T07:39:13.060Z,9.22
2023-04-03T07:42:42.540Z,9.51
2023-04-03T07:46:18.945Z,9.63
2023-04-03T07:50:13.811Z,9.80
2023-04-03T07:53:28.380Z,10.15
2023-04-03T07:56:31.578Z,10.56
2023-04-03T07:59:35.183Z,10.66
2023-04-03T08:02:39.490Z,10.96
2023-04-03T08:05:44.935Z,10.54
2023-04-03T08:08:48.832Z,10.80
2023-04-03T08:11:54.317Z,10.64
2023-04-03T08:14:58.219Z,10.76
2023-04-03T08:18:02.902Z,11.37
2023-04-03T08:21:15.296Z,10.33
2023-04-03T08:24:18.077Z,11.12
2023-04-03T08:27:22.210Z,11.21
2023-04-03T08:30:25.007Z,11.38
2023-04-03T08:33:28.471Z,11.94
2023-04-03T08:36:32.916Z,11.52
2023-04-03T08:40:26.125Z,11.44
2023-04-03T08:45:04.723Z,11.30
2023-04-03T08:54:03.468Z,11.09
2023-04-03T08:58:27.606Z,11.20
2023-04-03T09:01:42.280Z,11.14
2023-04-03T09:04:47.758Z,10.37
2023-04-03T09:08:04.441Z,10.62
2023-04-03T09:11:30.154Z,10.34
2023-04-03T09:14:46.777Z,10.51
2023-04-03T09:17:56.718Z,11.09
2023-04-03T09:21:18.240Z,11.06
2023-04-03T09:24:29.951Z,10.83
2023-04-03T09:29:04.055Z,10.81
2023-04-03T09:34:12.512Z,11.34
2023-04-03T09:38:19.155Z,11.56
2023-04-03T09:48:17.603Z,12.41
2023-04-03T09:51:29.191Z,11.98
2023-04-03T09:54:41.658Z,11.94
2023-04-03T09:57:52.142Z,11.42
2023-04-03T10:01:02.147Z,11.78
2023-04-03T10:04:21.239Z,11.62
2023-04-03T10:07:37.808Z,11.96
2023-04-03T10:10:49.295Z,12.19
2023-04-03T10:19:38.758Z,12.59
2023-04-03T10:22:57.233Z,12.31
2023-04-03T10:31:20.223Z,11.63
2023-04-03T10:34:31.824Z,11.92
2023-04-03T11:21:53.295Z,12.35
2023-04-03T11:25:29.623Z,12.46
2023-04-03T11:29:35.371Z,12.15
2023-04-03T11:36:50.281Z,12.48
2023-04-03T11:40:02.160Z,12.55
2023-04-03T11:43:26.913Z,12.24
2023-04-03T11:47:42.681Z,12.38
2023-04-03T11:51:22.369Z,12.27
2023-04-03T11:55:31.934Z,12.17
2023-04-03T11:59:36.993Z,11.83
2023-04-03T12:09:45.452Z,12.34
2023-04-03T12:14:35.780Z,12.31
2023-04-03T12:17:52.869Z,12.32
2023-04-03T12:21:09.634Z,12.58
2023-04-03T12:24:18.077Z,12.70
2023-04-03T12:27:38.675Z,12.68
2023-04-03T12:31:04.903Z,12.18
2023-04-03T12:34:25.492Z,12.30
2023-04-03T12:38:01.248Z,12.40
2023-04-03T12:41:48.256Z,12.62
2023-04-03T12:50:49.372Z,12.45
2023-04-03T12:55:05.765Z,12.73
2023-04-03T12:58:43.581Z,12.92
2023-04-03T13:02:19.027Z,12.83
2023-04-03T13:05:46.850Z,13.16
2023-04-03T13:09:40.779Z,12.71
2023-04-03T13:13:11.200Z,12.96
2023-04-03T13:16:18.510Z,12.88
2023-04-03T13:19:58.864Z,13.43
2023-04-03T13:23:09.993Z,13.26
2023-04-03T13:26:13.756Z,13.42
2023-04-03T13:33:27.992Z,13.16
2023-04-03T13:40:52.833Z,13.84
2023-04-03T13:44:24.856Z,13.76
2023-04-03T13:47:40.889Z,13.81
2023-04-03T13:51:26.022Z,14.00
2023-04-03T13:54:53.468Z,13.57
2023-04-03T13:58:38.165Z,14.47
2023-04-03T14:08:43.978Z,13.44
2023-04-03T14:12:31.519Z,13.81
2023-04-03T14:15:58.232Z,13.63
2023-04-03T14:19:45.009Z,13.53
2023-04-03T14:23:22.100Z,13.41
2023-04-03T14:26:59.927Z,13.51
2023-04-03T14:30:46.922Z,13.19
2023-04-03T14:34:05.061Z,12.87
2023-04-03T14:37:34.786Z,12.02
2023-04-03T14:41:03.618Z,12.52
2023-04-03T14:44:52.061Z,12.58
2023-04-03T14:48:26.308Z,12.46
2023-04-03T14:51:29.204Z,12.37
2023-04-03T14:54:48.467Z,12.42
2023-04-03T14:58:22.972Z,12.41
2023-04-03T15:01:44.454Z,12.83
2023-04-03T15:05:17.006Z,12.75
2023-04-03T15:08:52.929Z,12.57
2023-04-03T15:12:11.061Z,12.47
2023-04-03T15:15:17.064Z,12.37
2023-04-03T15:18:30.972Z,11.85
2023-04-03T15:21:33.829Z,12.06
2023-04-03T15:24:54.903Z,11.20
2023-04-03T15:28:29.384Z,11.48
2023-04-03T15:31:51.870Z,11.14
2023-04-03T15:34:56.758Z,11.02
2023-04-03T15:38:19.941Z,10.96
2023-04-03T15:41:36.686Z,10.91
2023-04-03T15:45:04.173Z,10.59
2023-04-03T15:48:40.811Z,10.43
2023-04-03T15:52:10.934Z,10.48
2023-04-03T15:55:42.001Z,10.46
2023-04-03T15:58:58.772Z,10.43
2023-04-03T16:02:17.967Z,10.52
2023-04-03T16:05:54.741Z,10.67
2023-04-03T16:09:11.816Z,10.78
2023-04-03T16:12:34.836Z,10.84
2023-04-03T16:16:10.819Z,10.66
2023-04-03T16:19:43.054Z,10.62
2023-04-03T16:23:11.248Z,10.77
2023-04-03T16:26:33.919Z,10.46
2023-04-03T16:29:49.165Z,10.20
2023-04-03T16:33:11.664Z,10.05
2023-04-03T16:36:33.098Z,9.84
2023-04-03T16:39:56.683Z,9.66
2023-04-03T16:43:33.700Z,9.97
2023-04-03T16:46:48.484Z,9.87
2023-04-03T16:50:04.924Z,10.02
2023-04-03T16:53:43.643Z,10.06
2023-04-03T16:57:10.917Z,9.68
2023-04-03T17:00:31.545Z,9.67
2023-04-03T17:03:54.710Z,9.86
2023-04-03T17:07:12.420Z,9.44
2023-04-03T17:10:28.932Z,9.34
2023-04-03T17:13:48.653Z,9.42
2023-04-03T17:17:04.391Z,9.12
2023-04-03T17:20:20.731Z,9.19
2023-04-03T17:24:01.659Z,9.28
2023-04-03T17:27:17.147Z,9.43
2023-04-03T17:30:21.035Z,9.27
2023-04-03T17:33:40.542Z,9.33
2023-04-03T17:37:09.755Z,9.17
2023-04-03T17:40:37.550Z,8.97
2023-04-03T17:43:41.868Z,9.12
2023-04-03T17:47:00.741Z,8.80
2023-04-03T17:50:16.117Z,9.06
2023-04-03T17:53:34.506Z,8.98
2023-04-03T17:57:14.932Z,8.94
2023-04-03T18:00:25.823Z,8.66
2023-04-03T18:03:43.157Z,8.62
2023-04-03T18:06:50.722Z,8.53
2023-04-03T18:10:06.512Z,8.21
2023-04-03T18:13:22.796Z,8.06
2023-04-03T18:16:25.937Z,7.88
2023-04-03T18:19:38.546Z,8.13
2023-04-03T18:22:41.741Z,8.28
2023-04-03T18:25:48.941Z,8.11
2023-04-03T18:28:56.851Z,8.25
2023-04-03T18:32:21.213Z,8.29
2023-04-03T18:35:45.402Z,8.26
2023-04-03T18:39:23.288Z,8.27
2023-04-03T18:42:32.657Z,7.95
2023-04-03T18:45:57.713Z,7.87
2023-04-03T18:49:29.189Z,7.65
2023-04-03T18:52:53.440Z,7.71
2023-04-03T18:56:29.653Z,7.54
2023-04-03T19:00:02.367Z,7.68
2023-04-03T19:03:10.919Z,7.50
2023-04-03T19:06:33.333Z,7.67
2023-04-03T19:09:50.183Z,7.61
2023-04-03T19:13:07.523Z,7.49
2023-04-03T19:16:23.981Z,7.35
2023-04-03T19:19:26.796Z,7.23
2023-04-03T19:22:49.231Z,7.21
2023-04-03T19:26:21.609Z,7.25
2023-04-03T19:29:44.022Z,6.97
2023-04-03T19:33:02.032Z,6.83
2023-04-03T19:36:19.370Z,6.99
2023-04-03T19:39:39.011Z,6.86
2023-04-03T19:43:02.312Z,6.93
2023-04-03T19:46:28.914Z,6.83
2023-04-03T19:49:52.211Z,6.55
2023-04-03T19:53:29.415Z,6.49
2023-04-03T19:57:06.157Z,6.82
2023-04-03T20:00:13.681Z,6.93
2023-04-03T20:03:36.230Z,6.70
2023-04-03T20:07:12.145Z,6.74
2023-04-03T20:10:28.982Z,6.73
2023-04-03T20:13:33.138Z,6.65
2023-04-03T20:16:56.148Z,6.67
2023-04-03T20:20:34.453Z,6.79
2023-04-03T20:24:03.158Z,6.37
2023-04-03T20:27:41.065Z,6.61
2023-04-03T20:30:57.979Z,6.34
2023-04-03T20:34:04.943Z,6.43
2023-04-03T20:37:34.278Z,6.26
2023-04-03T20:41:39.779Z,6.20
2023-04-03T20:44:57.477Z,6.29
2023-04-03T20:48:26.094Z,6.18
2023-04-03T20:52:02.270Z,6.04
2023-04-03T20:55:25.415Z,6.01
2023-04-03T20:58:30.374Z,6.30
2023-04-03T21:01:53.982Z,6.21
2023-04-03T21:04:59.490Z,6.47
2023-04-03T21:08:46.163Z,6.14
2023-04-03T21:12:32.965Z,6.37
2023-04-03T21:15:56.060Z,6.15
2023-04-03T21:19:20.124Z,6.20
2023-04-03T21:22:31.392Z,6.35
2023-04-03T21:25:53.997Z,6.10
2023-04-03T21:29:29.956Z,6.06
2023-04-03T21:32:56.947Z,6.02
2023-04-03T21:36:26.464Z,5.92
2023-04-03T21:39:43.734Z,6.02
2023-04-03T21:43:11.930Z,6.09
2023-04-03T21:46:32.278Z,6.17
2023-04-03T21:49:48.308Z,6.11
2023-04-03T21:53:10.898Z,5.93
2023-04-03T21:56:27.780Z,6.04
2023-04-03T21:59:51.971Z,5.95
2023-04-03T22:03:10.737Z,5.81
2023-04-03T22:06:40.906Z,5.99
2023-04-03T22:10:12.388Z,5.85
2023-04-03T22:13:41.883Z,5.82
2023-04-03T22:17:04.430Z,5.78
2023-04-03T22:20:14.422Z,5.90
2023-04-03T22:23:31.134Z,5.85
2023-04-03T22:27:02.946Z,5.80
2023-04-03T22:30:40.132Z,5.64
2023-04-03T22:34:06.005Z,5.45
2023-04-03T22:37:22.161Z,5.35
2023-04-03T22:40:44.755Z,5.20
2023-04-03T22:44:36.555Z,5.31
2023-04-03T22:47:46.550Z,5.35
2023-04-03T22:51:48.739Z,5.38
2023-04-03T22:55:18.601Z,5.29
2023-04-03T22:58:44.934Z,5.18
2023-04-03T23:02:09.763Z,5.15
2023-04-03T23:05:12.523Z,5.09
2023-04-03T23:08:15.074Z,5.20
2023-04-03T23:11:30.903Z,4.93
2023-04-03T23:14:34.696Z,4.90
2023-04-03T23:17:38.324Z,4.99
2023-04-03T23:20:41.193Z,4.90
2023-04-03T23:23:57.691Z,5.06
2023-04-03T23:27:33.621Z,4.81
2023-04-03T23:31:17.348Z,4.88
2023-04-03T23:34:56.101Z,4.93
2023-04-03T23:38:17.885Z,4.95
2023-04-03T23:41:40.662Z,4.92
2023-04-03T23:45:17.564Z,4.89
2023-04-03T23:48:53.756Z,4.95
2023-04-03T23:52:12.692Z,4.98
2023-04-03T23:55:35.568Z,5.12
2023-04-03T23:58:54.979Z,5.15
